sensor_id;sensor_type;location;lat;lon;timestamp;temperature;humidity
16958;DHT22;8595;52.542;11.974;2024-01-15T00:01:44;2.40;99.90
16958;DHT22;8595;52.542;11.974;2024-01-15T00:04:11;2.30;99.90
16958;DHT22;8595;52.542;11.974;2024-01-15T00:06:39;2.30;99.90
16958;DHT22;8595;52.542;11.974;2024-01-15T00:09:06;2.20;99.90
16958;DHT22;8595;52.542;11.974;2024-01-15T00:11:32;2.20;99.90
16958;DHT22;8595;52.542;11.974;2024-01-15T00:13:59;2.30;99.90
16958;DHT22;8595;52.542;11.974;2024-01-15T00:16:26;2.30;99.90
16958;DHT22;8595;52.542;11.974;2024-01-15T00:18:52;2.30;99.90
16958;DHT22;8595;52.542;11.974;2024-01-15T00:21:19;2.20;99.90
16958;DHT22;8595;52.542;11.974;2024-01-15T00:23:47;2.20;99.90
16958;DHT22;8595;52.542;11.974;2024-01-15T00:26:13;2.20;99.90
16958;DHT22;8595;52.542;11.974;2024-01-15T00:28:40;2.10;99.90
16958;DHT22;8595;52.542;11.974;2024-01-15T00:31:08;2.10;99.90
16958;DHT22;8595;52.542;11.974;2024-01-15T00:33:34;2.00;99.90
16958;DHT22;8595;52.542;11.974;2024-01-15T00:36:01;2.00;99.90
16958;DHT22;8595;52.542;11.974;2024-01-15T00:38:28;2.10;99.90
16958;DHT22;8595;52.542;11.974;2024-01-15T00:40:56;2.00;99.90
16958;DHT22;8595;52.542;11.974;2024-01-15T00:43:23;2.10;99.90
16958;DHT22;8595;52.542;11.974;2024-01-15T00:45:49;2.10;99.90
16958;DHT22;8595;52.542;11.974;2024-01-15T00:48:16;2.10;99.90
16958;DHT22;8595;52.542;11.974;2024-01-15T00:50:42;2.20;99.90
16958;DHT22;8595;52.542;11.974;2024-01-15T00:53:09;2.10;99.90
16958;DHT22;8595;52.542;11.974;2024-01-15T00:55:36;2.10;99.90
16958;DHT22;8595;52.542;11.974;2024-01-15T00:58:04;2.10;99.90
16958;DHT22;8595;52.542;11.974;2024-01-15T01:00:31;2.00;99.90
16958;DHT22;8595;52.542;11.974;2024-01-15T01:02:57;1.90;99.90
16958;DHT22;8595;52.542;11.974;2024-01-15T01:05:24;1.90;99.90
16958;DHT22;8595;52.542;11.974;2024-01-15T01:07:51;1.90;99.90
16958;DHT22;8595;52.542;11.974;2024-01-15T01:10:17;1.80;99.90
16958;DHT22;8595;52.542;11.974;2024-01-15T01:12:44;1.80;99.90
16958;DHT22;8595;52.542;11.974;2024-01-15T01:15:12;1.70;99.90
16958;DHT22;8595;52.542;11.974;2024-01-15T01:17:39;1.80;99.90
16958;DHT22;8595;52.542;11.974;2024-01-15T01:20:07;1.80;99.90
16958;DHT22;8595;52.542;11.974;2024-01-15T01:22:34;1.80;99.90
16958;DHT22;8595;52.542;11.974;2024-01-15T01:25:01;1.80;99.90
16958;DHT22;8595;52.542;11.974;2024-01-15T01:27:28;1.80;99.90
16958;DHT22;8595;52.542;11.974;2024-01-15T01:29:54;1.70;99.90
16958;DHT22;8595;52.542;11.974;2024-01-15T01:32:22;1.80;99.90
16958;DHT22;8595;52.542;11.974;2024-01-15T01:34:49;1.70;99.90
16958;DHT22;8595;52.542;11.974;2024-01-15T01:37:15;1.70;99.90
16958;DHT22;8595;52.542;11.974;2024-01-15T01:39:42;1.70;99.90
16958;DHT22;8595;52.542;11.974;2024-01-15T01:42:10;1.70;99.90
16958;DHT22;8595;52.542;11.974;2024-01-15T01:44:37;1.80;99.90
16958;DHT22;8595;52.542;11.974;2024-01-15T01:47:04;1.70;99.90
16958;DHT22;8595;52.542;11.974;2024-01-15T01:49:33;1.70;99.90
16958;DHT22;8595;52.542;11.974;2024-01-15T01:52:01;1.70;99.90
16958;DHT22;8595;52.542;11.974;2024-01-15T01:54:29;1.70;99.90
16958;DHT22;8595;52.542;11.974;2024-01-15T01:56:58;1.80;99.90
16958;DHT22;8595;52.542;11.974;2024-01-15T01:59:26;1.70;99.90
16958;DHT22;8595;52.542;11.974;2024-01-15T02:01:54;1.80;99.90
16958;DHT22;8595;52.542;11.974;2024-01-15T02:04:22;1.80;99.90
16958;DHT22;8595;52.542;11.974;2024-01-15T02:06:50;1.70;99.90
16958;DHT22;8595;52.542;11.974;2024-01-15T02:09:17;1.70;99.90
16958;DHT22;8595;52.542;11.974;2024-01-15T02:11:46;1.70;99.90
16958;DHT22;8595;52.542;11.974;2024-01-15T02:14:13;1.80;99.90
16958;DHT22;8595;52.542;11.974;2024-01-15T02:16:40;1.80;99.90
16958;DHT22;8595;52.542;11.974;2024-01-15T02:19:06;1.80;99.90
16958;DHT22;8595;52.542;11.974;2024-01-15T02:21:33;1.80;99.90
16958;DHT22;8595;52.542;11.974;2024-01-15T02:24:01;1.80;99.90
16958;DHT22;8595;52.542;11.974;2024-01-15T02:26:28;1.70;99.90
16958;DHT22;8595;52.542;11.974;2024-01-15T02:28:55;1.80;99.90
16958;DHT22;8595;52.542;11.974;2024-01-15T02:31:22;1.80;99.90
16958;DHT22;8595;52.542;11.974;2024-01-15T02:33:48;1.90;99.90
16958;DHT22;8595;52.542;11.974;2024-01-15T02:36:15;1.90;99.90
16958;DHT22;8595;52.542;11.974;2024-01-15T02:38:42;1.90;99.90
16958;DHT22;8595;52.542;11.974;2024-01-15T02:41:10;2.00;99.90
16958;DHT22;8595;52.542;11.974;2024-01-15T02:43:39;2.00;99.90
16958;DHT22;8595;52.542;11.974;2024-01-15T02:46:06;2.00;99.90
16958;DHT22;8595;52.542;11.974;2024-01-15T02:48:32;2.00;99.90
16958;DHT22;8595;52.542;11.974;2024-01-15T02:51:00;2.10;99.90
16958;DHT22;8595;52.542;11.974;2024-01-15T02:53:27;2.10;99.90
16958;DHT22;8595;52.542;11.974;2024-01-15T02:55:54;2.10;99.90
16958;DHT22;8595;52.542;11.974;2024-01-15T02:58:22;2.10;99.90
16958;DHT22;8595;52.542;11.974;2024-01-15T03:00:48;2.20;99.90
16958;DHT22;8595;52.542;11.974;2024-01-15T03:03:15;2.10;99.90
16958;DHT22;8595;52.542;11.974;2024-01-15T03:05:42;2.10;99.90
16958;DHT22;8595;52.542;11.974;2024-01-15T03:08:09;2.10;99.90
16958;DHT22;8595;52.542;11.974;2024-01-15T03:10:35;2.10;99.90
16958;DHT22;8595;52.542;11.974;2024-01-15T03:13:02;2.10;99.90
16958;DHT22;8595;52.542;11.974;2024-01-15T03:15:30;2.20;99.90
16958;DHT22;8595;52.542;11.974;2024-01-15T03:17:57;2.10;99.90
16958;DHT22;8595;52.542;11.974;2024-01-15T03:20:23;2.20;99.90
16958;DHT22;8595;52.542;11.974;2024-01-15T03:22:50;2.10;99.90
16958;DHT22;8595;52.542;11.974;2024-01-15T03:25:17;2.10;99.90
16958;DHT22;8595;52.542;11.974;2024-01-15T03:27:43;2.10;99.90
16958;DHT22;8595;52.542;11.974;2024-01-15T03:30:11;2.10;99.90
16958;DHT22;8595;52.542;11.974;2024-01-15T03:32:39;2.20;99.90
16958;DHT22;8595;52.542;11.974;2024-01-15T03:35:07;2.20;99.90
16958;DHT22;8595;52.542;11.974;2024-01-15T03:37:33;2.10;99.90
16958;DHT22;8595;52.542;11.974;2024-01-15T03:40:01;2.20;99.90
16958;DHT22;8595;52.542;11.974;2024-01-15T03:42:28;2.10;99.90
16958;DHT22;8595;52.542;11.974;2024-01-15T03:44:54;2.10;99.90
16958;DHT22;8595;52.542;11.974;2024-01-15T03:47:21;2.10;99.90
16958;DHT22;8595;52.542;11.974;2024-01-15T03:49:49;2.10;99.90
16958;DHT22;8595;52.542;11.974;2024-01-15T03:52:15;2.10;99.90
16958;DHT22;8595;52.542;11.974;2024-01-15T03:54:42;2.20;99.90
16958;DHT22;8595;52.542;11.974;2024-01-15T03:57:08;2.20;99.90
16958;DHT22;8595;52.542;11.974;2024-01-15T03:59:35;2.20;99.90
16958;DHT22;8595;52.542;11.974;2024-01-15T04:02:02;2.10;99.90
16958;DHT22;8595;52.542;11.974;2024-01-15T04:04:29;2.20;99.90
16958;DHT22;8595;52.542;11.974;2024-01-15T04:06:57;2.20;99.90
16958;DHT22;8595;52.542;11.974;2024-01-15T04:09:23;2.20;99.90
16958;DHT22;8595;52.542;11.974;2024-01-15T04:11:50;2.10;99.90
16958;DHT22;8595;52.542;11.974;2024-01-15T04:14:17;2.20;99.90
16958;DHT22;8595;52.542;11.974;2024-01-15T04:16:43;2.10;99.90
16958;DHT22;8595;52.542;11.974;2024-01-15T04:19:10;2.20;99.90
16958;DHT22;8595;52.542;11.974;2024-01-15T04:21:36;2.20;99.90
16958;DHT22;8595;52.542;11.974;2024-01-15T04:24:05;2.20;99.90
16958;DHT22;8595;52.542;11.974;2024-01-15T04:26:32;2.30;99.90
16958;DHT22;8595;52.542;11.974;2024-01-15T04:28:59;2.20;99.90
16958;DHT22;8595;52.542;11.974;2024-01-15T04:31:25;2.20;99.90
16958;DHT22;8595;52.542;11.974;2024-01-15T04:33:53;2.20;99.90
16958;DHT22;8595;52.542;11.974;2024-01-15T04:36:20;2.20;99.90
16958;DHT22;8595;52.542;11.974;2024-01-15T04:38:46;2.30;99.90
16958;DHT22;8595;52.542;11.974;2024-01-15T04:41:15;2.30;99.90
16958;DHT22;8595;52.542;11.974;2024-01-15T04:43:43;2.30;99.90
16958;DHT22;8595;52.542;11.974;2024-01-15T04:46:09;2.30;99.90
16958;DHT22;8595;52.542;11.974;2024-01-15T04:48:36;2.30;99.90
16958;DHT22;8595;52.542;11.974;2024-01-15T04:51:04;2.30;99.90
16958;DHT22;8595;52.542;11.974;2024-01-15T04:53:31;2.30;99.90
16958;DHT22;8595;52.542;11.974;2024-01-15T04:55:58;2.20;99.90
16958;DHT22;8595;52.542;11.974;2024-01-15T04:58:25;2.10;99.90
16958;DHT22;8595;52.542;11.974;2024-01-15T05:00:52;2.30;99.90
16958;DHT22;8595;52.542;11.974;2024-01-15T05:03:19;2.20;99.90
16958;DHT22;8595;52.542;11.974;2024-01-15T05:05:46;2.30;99.90
16958;DHT22;8595;52.542;11.974;2024-01-15T05:08:13;2.20;99.90
16958;DHT22;8595;52.542;11.974;2024-01-15T05:10:39;2.20;99.90
16958;DHT22;8595;52.542;11.974;2024-01-15T05:13:06;2.20;99.90
16958;DHT22;8595;52.542;11.974;2024-01-15T05:15:34;2.10;99.90
16958;DHT22;8595;52.542;11.974;2024-01-15T05:18:00;2.10;99.90
16958;DHT22;8595;52.542;11.974;2024-01-15T05:20:27;2.10;99.90
16958;DHT22;8595;52.542;11.974;2024-01-15T05:22:54;2.20;99.90
16958;DHT22;8595;52.542;11.974;2024-01-15T05:25:20;2.20;99.90
16958;DHT22;8595;52.542;11.974;2024-01-15T05:27:47;2.30;99.90
16958;DHT22;8595;52.542;11.974;2024-01-15T05:30:14;2.20;99.90
16958;DHT22;8595;52.542;11.974;2024-01-15T05:32:43;2.20;99.90
16958;DHT22;8595;52.542;11.974;2024-01-15T05:35:09;2.10;99.90
16958;DHT22;8595;52.542;11.974;2024-01-15T05:37:36;2.20;99.90
16958;DHT22;8595;52.542;11.974;2024-01-15T05:40:03;2.30;99.90
16958;DHT22;8595;52.542;11.974;2024-01-15T05:42:30;2.30;99.90
16958;DHT22;8595;52.542;11.974;2024-01-15T05:44:57;2.20;99.90
16958;DHT22;8595;52.542;11.974;2024-01-15T05:47:24;2.40;99.90
16958;DHT22;8595;52.542;11.974;2024-01-15T05:49:52;2.40;99.90
16958;DHT22;8595;52.542;11.974;2024-01-15T05:52:19;2.40;99.90
16958;DHT22;8595;52.542;11.974;2024-01-15T05:54:47;2.40;99.90
16958;DHT22;8595;52.542;11.974;2024-01-15T05:57:13;2.30;99.90
16958;DHT22;8595;52.542;11.974;2024-01-15T05:59:40;2.20;99.90
16958;DHT22;8595;52.542;11.974;2024-01-15T06:02:07;2.20;99.90
16958;DHT22;8595;52.542;11.974;2024-01-15T06:04:33;2.20;99.90
16958;DHT22;8595;52.542;11.974;2024-01-15T06:07:01;2.20;99.90
16958;DHT22;8595;52.542;11.974;2024-01-15T06:09:28;2.20;99.90
16958;DHT22;8595;52.542;11.974;2024-01-15T06:11:55;2.20;99.90
16958;DHT22;8595;52.542;11.974;2024-01-15T06:14:21;2.10;99.90
16958;DHT22;8595;52.542;11.974;2024-01-15T06:16:48;2.10;99.90
16958;DHT22;8595;52.542;11.974;2024-01-15T06:19:15;2.20;99.90
16958;DHT22;8595;52.542;11.974;2024-01-15T06:21:42;2.10;99.90
16958;DHT22;8595;52.542;11.974;2024-01-15T06:24:10;2.10;99.90
16958;DHT22;8595;52.542;11.974;2024-01-15T06:26:36;2.10;99.90
16958;DHT22;8595;52.542;11.974;2024-01-15T06:29:03;2.10;99.90
16958;DHT22;8595;52.542;11.974;2024-01-15T06:31:29;2.10;99.90
16958;DHT22;8595;52.542;11.974;2024-01-15T06:33:56;2.10;99.90
16958;DHT22;8595;52.542;11.974;2024-01-15T06:36:23;2.00;99.90
16958;DHT22;8595;52.542;11.974;2024-01-15T06:38:49;2.10;99.90
16958;DHT22;8595;52.542;11.974;2024-01-15T06:41:17;2.10;99.90
16958;DHT22;8595;52.542;11.974;2024-01-15T06:43:44;2.00;99.90
16958;DHT22;8595;52.542;11.974;2024-01-15T06:46:10;2.00;99.90
16958;DHT22;8595;52.542;11.974;2024-01-15T06:48:37;2.00;99.90
16958;DHT22;8595;52.542;11.974;2024-01-15T06:51:04;1.90;99.90
16958;DHT22;8595;52.542;11.974;2024-01-15T06:53:30;1.90;99.90
16958;DHT22;8595;52.542;11.974;2024-01-15T06:55:57;2.00;99.90
16958;DHT22;8595;52.542;11.974;2024-01-15T06:58:25;2.00;99.90
16958;DHT22;8595;52.542;11.974;2024-01-15T07:00:52;1.90;99.90
16958;DHT22;8595;52.542;11.974;2024-01-15T07:03:19;2.00;99.90
16958;DHT22;8595;52.542;11.974;2024-01-15T07:05:45;1.90;99.90
16958;DHT22;8595;52.542;11.974;2024-01-15T07:08:12;2.00;99.90
16958;DHT22;8595;52.542;11.974;2024-01-15T07:10:38;2.00;99.90
16958;DHT22;8595;52.542;11.974;2024-01-15T07:13:05;2.10;99.90
16958;DHT22;8595;52.542;11.974;2024-01-15T07:15:33;2.10;99.90
16958;DHT22;8595;52.542;11.974;2024-01-15T07:17:59;2.10;99.90
16958;DHT22;8595;52.542;11.974;2024-01-15T07:20:26;2.20;99.90
16958;DHT22;8595;52.542;11.974;2024-01-15T07:22:53;2.20;99.90
16958;DHT22;8595;52.542;11.974;2024-01-15T07:25:19;2.10;99.90
16958;DHT22;8595;52.542;11.974;2024-01-15T07:27:46;2.10;99.90
16958;DHT22;8595;52.542;11.974;2024-01-15T07:30:13;2.10;99.90
16958;DHT22;8595;52.542;11.974;2024-01-15T07:32:41;2.10;99.90
16958;DHT22;8595;52.542;11.974;2024-01-15T07:35:08;2.10;99.90
16958;DHT22;8595;52.542;11.974;2024-01-15T07:37:35;2.20;99.90
16958;DHT22;8595;52.542;11.974;2024-01-15T07:40:02;2.10;99.90
16958;DHT22;8595;52.542;11.974;2024-01-15T07:42:29;2.10;99.90
16958;DHT22;8595;52.542;11.974;2024-01-15T07:44:56;2.10;99.90
16958;DHT22;8595;52.542;11.974;2024-01-15T07:47:23;2.20;99.90
16958;DHT22;8595;52.542;11.974;2024-01-15T07:49:51;2.20;99.90
16958;DHT22;8595;52.542;11.974;2024-01-15T07:52:17;2.20;99.90
16958;DHT22;8595;52.542;11.974;2024-01-15T07:54:44;2.20;99.90
16958;DHT22;8595;52.542;11.974;2024-01-15T07:57:11;2.00;99.90
16958;DHT22;8595;52.542;11.974;2024-01-15T07:59:37;2.20;99.90
16958;DHT22;8595;52.542;11.974;2024-01-15T08:02:04;2.30;99.90
16958;DHT22;8595;52.542;11.974;2024-01-15T08:04:30;2.20;99.90
16958;DHT22;8595;52.542;11.974;2024-01-15T08:06:58;2.20;99.90
16958;DHT22;8595;52.542;11.974;2024-01-15T08:09:25;2.30;99.90
16958;DHT22;8595;52.542;11.974;2024-01-15T08:11:51;2.30;99.90
16958;DHT22;8595;52.542;11.974;2024-01-15T08:14:18;2.40;99.90
16958;DHT22;8595;52.542;11.974;2024-01-15T08:16:45;2.50;99.90
16958;DHT22;8595;52.542;11.974;2024-01-15T08:19:12;2.50;99.90
16958;DHT22;8595;52.542;11.974;2024-01-15T08:21:39;2.40;99.90
16958;DHT22;8595;52.542;11.974;2024-01-15T08:24:08;2.50;99.90
16958;DHT22;8595;52.542;11.974;2024-01-15T08:26:35;2.40;99.90
16958;DHT22;8595;52.542;11.974;2024-01-15T08:29:01;2.50;99.90
16958;DHT22;8595;52.542;11.974;2024-01-15T08:31:28;2.50;99.90
16958;DHT22;8595;52.542;11.974;2024-01-15T08:33:55;2.50;99.90
16958;DHT22;8595;52.542;11.974;2024-01-15T08:36:22;2.40;99.90
16958;DHT22;8595;52.542;11.974;2024-01-15T08:38:49;2.50;99.90
16958;DHT22;8595;52.542;11.974;2024-01-15T08:41:17;2.50;99.90
16958;DHT22;8595;52.542;11.974;2024-01-15T08:43:44;2.50;99.90
16958;DHT22;8595;52.542;11.974;2024-01-15T08:46:10;2.50;99.90
16958;DHT22;8595;52.542;11.974;2024-01-15T08:48:37;2.50;99.90
16958;DHT22;8595;52.542;11.974;2024-01-15T08:51:05;2.60;99.90
16958;DHT22;8595;52.542;11.974;2024-01-15T08:53:30;2.50;99.90
16958;DHT22;8595;52.542;11.974;2024-01-15T08:55:58;2.60;99.90
16958;DHT22;8595;52.542;11.974;2024-01-15T08:58:26;2.50;99.90
16958;DHT22;8595;52.542;11.974;2024-01-15T09:00:53;2.60;99.90
16958;DHT22;8595;52.542;11.974;2024-01-15T09:03:20;2.40;99.90
16958;DHT22;8595;52.542;11.974;2024-01-15T09:05:47;2.50;99.90
16958;DHT22;8595;52.542;11.974;2024-01-15T09:08:15;2.60;99.90
16958;DHT22;8595;52.542;11.974;2024-01-15T09:10:41;2.50;99.90
16958;DHT22;8595;52.542;11.974;2024-01-15T09:13:08;2.50;99.90
16958;DHT22;8595;52.542;11.974;2024-01-15T09:15:36;2.50;99.90
16958;DHT22;8595;52.542;11.974;2024-01-15T09:18:03;2.50;99.90
16958;DHT22;8595;52.542;11.974;2024-01-15T09:20:30;2.60;99.90
16958;DHT22;8595;52.542;11.974;2024-01-15T09:22:57;2.70;99.90
16958;DHT22;8595;52.542;11.974;2024-01-15T09:25:24;2.70;99.90
16958;DHT22;8595;52.542;11.974;2024-01-15T09:27:50;2.80;99.90
16958;DHT22;8595;52.542;11.974;2024-01-15T09:30:17;3.00;99.90
16958;DHT22;8595;52.542;11.974;2024-01-15T09:32:45;3.00;99.90
16958;DHT22;8595;52.542;11.974;2024-01-15T09:35:11;2.80;99.90
16958;DHT22;8595;52.542;11.974;2024-01-15T09:37:39;2.70;99.90
16958;DHT22;8595;52.542;11.974;2024-01-15T09:40:08;2.70;99.90
16958;DHT22;8595;52.542;11.974;2024-01-15T09:42:35;2.50;99.90
16958;DHT22;8595;52.542;11.974;2024-01-15T09:45:02;2.40;99.90
16958;DHT22;8595;52.542;11.974;2024-01-15T09:47:30;2.30;99.90
16958;DHT22;8595;52.542;11.974;2024-01-15T09:49:58;2.30;99.90
16958;DHT22;8595;52.542;11.974;2024-01-15T09:52:25;2.10;99.90
16958;DHT22;8595;52.542;11.974;2024-01-15T09:54:52;2.10;99.90
16958;DHT22;8595;52.542;11.974;2024-01-15T09:57:19;1.90;99.90
16958;DHT22;8595;52.542;11.974;2024-01-15T09:59:45;1.80;99.90
16958;DHT22;8595;52.542;11.974;2024-01-15T10:02:13;1.80;99.90
16958;DHT22;8595;52.542;11.974;2024-01-15T10:04:44;1.80;99.90
16958;DHT22;8595;52.542;11.974;2024-01-15T10:07:15;1.70;99.90
16958;DHT22;8595;52.542;11.974;2024-01-15T10:09:43;1.70;99.90
16958;DHT22;8595;52.542;11.974;2024-01-15T10:12:10;1.80;99.90
16958;DHT22;8595;52.542;11.974;2024-01-15T10:14:37;1.90;99.90
16958;DHT22;8595;52.542;11.974;2024-01-15T10:17:12;1.80;99.90
16958;DHT22;8595;52.542;11.974;2024-01-15T10:19:39;1.70;99.90
16958;DHT22;8595;52.542;11.974;2024-01-15T10:22:07;1.70;99.90
16958;DHT22;8595;52.542;11.974;2024-01-15T10:24:36;1.70;99.90
16958;DHT22;8595;52.542;11.974;2024-01-15T10:27:06;1.60;99.90
16958;DHT22;8595;52.542;11.974;2024-01-15T10:29:33;1.60;99.90
16958;DHT22;8595;52.542;11.974;2024-01-15T10:31:59;1.70;99.90
16958;DHT22;8595;52.542;11.974;2024-01-15T10:34:27;1.90;99.90
16958;DHT22;8595;52.542;11.974;2024-01-15T10:36:54;2.00;99.90
16958;DHT22;8595;52.542;11.974;2024-01-15T10:39:21;1.90;99.90
16958;DHT22;8595;52.542;11.974;2024-01-15T10:41:50;1.90;99.90
16958;DHT22;8595;52.542;11.974;2024-01-15T10:44:17;2.00;99.90
16958;DHT22;8595;52.542;11.974;2024-01-15T10:46:44;2.00;99.90
16958;DHT22;8595;52.542;11.974;2024-01-15T10:49:12;1.80;99.90
16958;DHT22;8595;52.542;11.974;2024-01-15T10:51:40;1.60;99.90
16958;DHT22;8595;52.542;11.974;2024-01-15T10:54:09;1.60;99.90
16958;DHT22;8595;52.542;11.974;2024-01-15T10:56:37;1.80;99.90
16958;DHT22;8595;52.542;11.974;2024-01-15T10:59:06;1.90;99.90
16958;DHT22;8595;52.542;11.974;2024-01-15T11:01:36;1.80;99.90
16958;DHT22;8595;52.542;11.974;2024-01-15T11:04:03;2.00;99.90
16958;DHT22;8595;52.542;11.974;2024-01-15T11:06:42;2.20;99.90
16958;DHT22;8595;52.542;11.974;2024-01-15T11:09:09;2.30;99.90
16958;DHT22;8595;52.542;11.974;2024-01-15T11:11:40;2.20;99.90
16958;DHT22;8595;52.542;11.974;2024-01-15T11:14:08;2.20;99.90
16958;DHT22;8595;52.542;11.974;2024-01-15T11:16:54;2.00;99.90
16958;DHT22;8595;52.542;11.974;2024-01-15T11:19:21;1.90;99.90
16958;DHT22;8595;52.542;11.974;2024-01-15T11:21:48;1.90;99.90
16958;DHT22;8595;52.542;11.974;2024-01-15T11:24:33;1.90;99.90
16958;DHT22;8595;52.542;11.974;2024-01-15T11:27:00;1.80;99.90
16958;DHT22;8595;52.542;11.974;2024-01-15T11:29:32;1.90;99.90
16958;DHT22;8595;52.542;11.974;2024-01-15T11:32:04;2.00;99.90
16958;DHT22;8595;52.542;11.974;2024-01-15T11:34:50;1.90;99.90
16958;DHT22;8595;52.542;11.974;2024-01-15T11:37:18;1.90;99.90
16958;DHT22;8595;52.542;11.974;2024-01-15T11:39:45;1.90;99.90
16958;DHT22;8595;52.542;11.974;2024-01-15T11:42:13;1.80;99.90
16958;DHT22;8595;52.542;11.974;2024-01-15T11:44:41;1.90;99.90
16958;DHT22;8595;52.542;11.974;2024-01-15T11:47:09;1.80;99.90
16958;DHT22;8595;52.542;11.974;2024-01-15T11:49:58;2.00;99.90
16958;DHT22;8595;52.542;11.974;2024-01-15T11:52:26;2.00;99.90
16958;DHT22;8595;52.542;11.974;2024-01-15T11:54:59;1.90;99.90
16958;DHT22;8595;52.542;11.974;2024-01-15T11:57:33;2.00;99.90
16958;DHT22;8595;52.542;11.974;2024-01-15T12:00:07;2.10;99.90
16958;DHT22;8595;52.542;11.974;2024-01-15T12:02:34;2.20;99.90
16958;DHT22;8595;52.542;11.974;2024-01-15T12:05:01;2.20;99.90
16958;DHT22;8595;52.542;11.974;2024-01-15T12:07:28;2.30;99.90
16958;DHT22;8595;52.542;11.974;2024-01-15T12:09:55;2.30;99.90
16958;DHT22;8595;52.542;11.974;2024-01-15T12:12:29;2.20;99.90
16958;DHT22;8595;52.542;11.974;2024-01-15T12:15:01;2.30;99.90
16958;DHT22;8595;52.542;11.974;2024-01-15T12:17:29;2.30;99.90
16958;DHT22;8595;52.542;11.974;2024-01-15T12:19:57;2.30;99.90
16958;DHT22;8595;52.542;11.974;2024-01-15T12:22:23;2.30;99.90
16958;DHT22;8595;52.542;11.974;2024-01-15T12:24:50;2.30;99.90
16958;DHT22;8595;52.542;11.974;2024-01-15T12:27:16;2.30;99.90
16958;DHT22;8595;52.542;11.974;2024-01-15T12:29:43;2.40;99.90
16958;DHT22;8595;52.542;11.974;2024-01-15T12:32:12;2.40;99.90
16958;DHT22;8595;52.542;11.974;2024-01-15T12:34:39;2.30;99.90
16958;DHT22;8595;52.542;11.974;2024-01-15T12:37:10;2.40;99.90
16958;DHT22;8595;52.542;11.974;2024-01-15T12:39:37;2.40;99.90
16958;DHT22;8595;52.542;11.974;2024-01-15T12:42:04;2.30;99.90
16958;DHT22;8595;52.542;11.974;2024-01-15T12:44:34;2.30;99.90
16958;DHT22;8595;52.542;11.974;2024-01-15T12:47:01;2.30;99.90
16958;DHT22;8595;52.542;11.974;2024-01-15T12:49:28;2.40;99.90
16958;DHT22;8595;52.542;11.974;2024-01-15T12:51:57;2.40;99.90
16958;DHT22;8595;52.542;11.974;2024-01-15T12:54:24;2.40;99.90
16958;DHT22;8595;52.542;11.974;2024-01-15T12:56:51;2.50;99.90
16958;DHT22;8595;52.542;11.974;2024-01-15T12:59:18;2.50;99.90
16958;DHT22;8595;52.542;11.974;2024-01-15T13:01:45;2.60;99.90
16958;DHT22;8595;52.542;11.974;2024-01-15T13:04:21;2.70;99.90
16958;DHT22;8595;52.542;11.974;2024-01-15T13:06:49;2.60;99.90
16958;DHT22;8595;52.542;11.974;2024-01-15T13:09:17;2.50;99.90
16958;DHT22;8595;52.542;11.974;2024-01-15T13:11:44;2.50;99.90
16958;DHT22;8595;52.542;11.974;2024-01-15T13:14:11;2.30;99.90
16958;DHT22;8595;52.542;11.974;2024-01-15T13:16:39;2.20;99.90
16958;DHT22;8595;52.542;11.974;2024-01-15T13:19:07;2.30;99.90
16958;DHT22;8595;52.542;11.974;2024-01-15T13:21:34;2.40;99.90
16958;DHT22;8595;52.542;11.974;2024-01-15T13:24:01;2.30;99.90
16958;DHT22;8595;52.542;11.974;2024-01-15T13:26:30;2.40;99.90
16958;DHT22;8595;52.542;11.974;2024-01-15T13:28:56;2.50;99.90
16958;DHT22;8595;52.542;11.974;2024-01-15T13:31:23;2.30;99.90
16958;DHT22;8595;52.542;11.974;2024-01-15T13:33:50;2.30;99.90
16958;DHT22;8595;52.542;11.974;2024-01-15T13:36:17;2.30;99.90
16958;DHT22;8595;52.542;11.974;2024-01-15T13:38:43;2.30;99.90
16958;DHT22;8595;52.542;11.974;2024-01-15T13:41:10;2.30;99.90
16958;DHT22;8595;52.542;11.974;2024-01-15T13:43:38;2.30;99.90
16958;DHT22;8595;52.542;11.974;2024-01-15T13:46:05;2.20;99.90
16958;DHT22;8595;52.542;11.974;2024-01-15T13:48:32;2.10;99.90
16958;DHT22;8595;52.542;11.974;2024-01-15T13:50:59;2.10;99.90
16958;DHT22;8595;52.542;11.974;2024-01-15T13:53:25;2.00;99.90
16958;DHT22;8595;52.542;11.974;2024-01-15T13:55:52;2.00;99.90
16958;DHT22;8595;52.542;11.974;2024-01-15T13:58:19;2.00;99.90
16958;DHT22;8595;52.542;11.974;2024-01-15T14:00:48;2.10;99.90
16958;DHT22;8595;52.542;11.974;2024-01-15T14:03:14;2.10;99.90
16958;DHT22;8595;52.542;11.974;2024-01-15T14:05:41;2.10;99.90
16958;DHT22;8595;52.542;11.974;2024-01-15T14:08:08;2.10;99.90
16958;DHT22;8595;52.542;11.974;2024-01-15T14:10:34;2.10;99.90
16958;DHT22;8595;52.542;11.974;2024-01-15T14:13:01;2.10;99.90
16958;DHT22;8595;52.542;11.974;2024-01-15T14:15:28;2.10;99.90
16958;DHT22;8595;52.542;11.974;2024-01-15T14:17:56;2.10;99.90
16958;DHT22;8595;52.542;11.974;2024-01-15T14:20:23;1.90;99.90
16958;DHT22;8595;52.542;11.974;2024-01-15T14:22:50;1.90;99.90
16958;DHT22;8595;52.542;11.974;2024-01-15T14:25:16;2.00;99.90
16958;DHT22;8595;52.542;11.974;2024-01-15T14:27:44;1.90;99.90
16958;DHT22;8595;52.542;11.974;2024-01-15T14:30:12;1.90;99.90
16958;DHT22;8595;52.542;11.974;2024-01-15T14:32:41;1.80;99.90
16958;DHT22;8595;52.542;11.974;2024-01-15T14:35:09;1.60;99.90
16958;DHT22;8595;52.542;11.974;2024-01-15T14:37:36;1.60;99.90
16958;DHT22;8595;52.542;11.974;2024-01-15T14:40:04;1.50;99.90
16958;DHT22;8595;52.542;11.974;2024-01-15T14:42:33;1.40;99.90
16958;DHT22;8595;52.542;11.974;2024-01-15T14:45:00;1.40;99.90
16958;DHT22;8595;52.542;11.974;2024-01-15T14:47:28;1.20;99.90
16958;DHT22;8595;52.542;11.974;2024-01-15T14:49:55;1.20;99.90
16958;DHT22;8595;52.542;11.974;2024-01-15T14:52:24;1.10;99.90
16958;DHT22;8595;52.542;11.974;2024-01-15T14:54:51;1.10;99.90
16958;DHT22;8595;52.542;11.974;2024-01-15T14:57:17;1.10;99.90
16958;DHT22;8595;52.542;11.974;2024-01-15T14:59:44;1.10;99.90
16958;DHT22;8595;52.542;11.974;2024-01-15T15:02:11;1.10;99.90
16958;DHT22;8595;52.542;11.974;2024-01-15T15:04:39;1.00;99.90
16958;DHT22;8595;52.542;11.974;2024-01-15T15:07:07;1.10;99.90
16958;DHT22;8595;52.542;11.974;2024-01-15T15:09:35;1.00;99.90
16958;DHT22;8595;52.542;11.974;2024-01-15T15:12:03;1.00;99.90
16958;DHT22;8595;52.542;11.974;2024-01-15T15:14:33;1.10;99.90
16958;DHT22;8595;52.542;11.974;2024-01-15T15:17:03;1.00;99.90
16958;DHT22;8595;52.542;11.974;2024-01-15T15:19:34;1.10;99.90
16958;DHT22;8595;52.542;11.974;2024-01-15T15:22:01;1.20;99.90
16958;DHT22;8595;52.542;11.974;2024-01-15T15:24:28;1.10;99.90
16958;DHT22;8595;52.542;11.974;2024-01-15T15:26:55;1.20;99.90
16958;DHT22;8595;52.542;11.974;2024-01-15T15:29:22;1.30;99.90
16958;DHT22;8595;52.542;11.974;2024-01-15T15:31:50;1.30;99.90
16958;DHT22;8595;52.542;11.974;2024-01-15T15:34:16;1.20;99.90
16958;DHT22;8595;52.542;11.974;2024-01-15T15:36:43;1.20;99.90
16958;DHT22;8595;52.542;11.974;2024-01-15T15:39:10;1.20;99.90
16958;DHT22;8595;52.542;11.974;2024-01-15T15:41:36;1.20;99.90
16958;DHT22;8595;52.542;11.974;2024-01-15T15:44:05;1.10;99.90
16958;DHT22;8595;52.542;11.974;2024-01-15T15:46:31;1.20;99.90